sensor_id;sensor_type;location;lat;lon;timestamp;P1;durP1;ratioP1;P2;durP2;ratioP2
6725;SDS011;3400;48.506;11.692;2023-04-16T00:00:43;6.90;;;6.30;;
6725;SDS011;3400;48.506;11.692;2023-04-16T00:03:11;7.30;;;6.40;;
6725;SDS011;3400;48.506;11.692;2023-04-16T00:05:38;7.43;;;6.80;;
6725;SDS011;3400;48.506;11.692;2023-04-16T00:08:08;8.17;;;7.20;;
6725;SDS011;3400;48.506;11.692;2023-04-16T00:10:36;7.03;;;6.43;;
6725;SDS011;3400;48.506;11.692;2023-04-16T00:13:03;7.53;;;6.77;;
6725;SDS011;3400;48.506;11.692;2023-04-16T00:15:31;7.90;;;7.20;;
6725;SDS011;3400;48.506;11.692;2023-04-16T00:17:59;7.33;;;6.73;;
6725;SDS011;3400;48.506;11.692;2023-04-16T00:20:27;7.23;;;6.73;;
6725;SDS011;3400;48.506;11.692;2023-04-16T00:22:55;7.93;;;7.13;;
6725;SDS011;3400;48.506;11.692;2023-04-16T00:25:24;8.60;;;7.80;;
6725;SDS011;3400;48.506;11.692;2023-04-16T00:27:52;7.53;;;6.93;;
6725;SDS011;3400;48.506;11.692;2023-04-16T00:30:21;7.60;;;6.90;;
6725;SDS011;3400;48.506;11.692;2023-04-16T00:32:49;7.67;;;7.07;;
6725;SDS011;3400;48.506;11.692;2023-04-16T00:35:17;7.97;;;7.27;;
6725;SDS011;3400;48.506;11.692;2023-04-16T00:37:45;8.63;;;7.70;;
6725;SDS011;3400;48.506;11.692;2023-04-16T00:40:12;7.97;;;7.27;;
6725;SDS011;3400;48.506;11.692;2023-04-16T00:42:42;7.87;;;7.07;;
6725;SDS011;3400;48.506;11.692;2023-04-16T00:45:10;6.97;;;6.37;;
6725;SDS011;3400;48.506;11.692;2023-04-16T00:47:38;6.90;;;6.30;;
6725;SDS011;3400;48.506;11.692;2023-04-16T00:50:06;7.90;;;7.20;;
6725;SDS011;3400;48.506;11.692;2023-04-16T00:52:34;7.10;;;6.50;;
6725;SDS011;3400;48.506;11.692;2023-04-16T00:55:02;7.17;;;6.57;;
6725;SDS011;3400;48.506;11.692;2023-04-16T00:57:30;7.33;;;6.73;;
6725;SDS011;3400;48.506;11.692;2023-04-16T00:59:59;6.30;;;5.80;;
6725;SDS011;3400;48.506;11.692;2023-04-16T01:02:27;6.17;;;5.70;;
6725;SDS011;3400;48.506;11.692;2023-04-16T01:04:55;6.30;;;5.77;;
6725;SDS011;3400;48.506;11.692;2023-04-16T01:07:22;6.43;;;5.90;;
6725;SDS011;3400;48.506;11.692;2023-04-16T01:09:50;6.00;;;5.40;;
6725;SDS011;3400;48.506;11.692;2023-04-16T01:12:18;6.03;;;5.53;;
6725;SDS011;3400;48.506;11.692;2023-04-16T01:14:46;7.77;;;5.53;;
6725;SDS011;3400;48.506;11.692;2023-04-16T01:17:15;5.90;;;5.40;;
6725;SDS011;3400;48.506;11.692;2023-04-16T01:19:43;5.70;;;5.30;;
6725;SDS011;3400;48.506;11.692;2023-04-16T01:22:12;5.50;;;5.10;;
6725;SDS011;3400;48.506;11.692;2023-04-16T01:24:41;5.47;;;5.07;;
6725;SDS011;3400;48.506;11.692;2023-04-16T01:27:09;5.87;;;5.30;;
6725;SDS011;3400;48.506;11.692;2023-04-16T01:29:37;5.97;;;5.50;;
6725;SDS011;3400;48.506;11.692;2023-04-16T01:32:05;5.43;;;5.03;;
6725;SDS011;3400;48.506;11.692;2023-04-16T01:34:35;5.27;;;4.87;;
6725;SDS011;3400;48.506;11.692;2023-04-16T01:37:03;6.47;;;4.70;;
6725;SDS011;3400;48.506;11.692;2023-04-16T01:39:33;5.87;;;5.37;;
6725;SDS011;3400;48.506;11.692;2023-04-16T01:42:01;5.30;;;4.83;;
6725;SDS011;3400;48.506;11.692;2023-04-16T01:44:29;5.13;;;4.73;;
6725;SDS011;3400;48.506;11.692;2023-04-16T01:46:57;4.90;;;4.50;;
6725;SDS011;3400;48.506;11.692;2023-04-16T01:49:25;5.63;;;5.13;;
6725;SDS011;3400;48.506;11.692;2023-04-16T01:51:57;5.93;;;5.43;;
6725;SDS011;3400;48.506;11.692;2023-04-16T01:54:25;5.33;;;4.93;;
6725;SDS011;3400;48.506;11.692;2023-04-16T01:56:55;5.43;;;5.03;;
6725;SDS011;3400;48.506;11.692;2023-04-16T01:59:23;5.27;;;4.87;;
6725;SDS011;3400;48.506;11.692;2023-04-16T02:01:50;5.20;;;4.80;;
6725;SDS011;3400;48.506;11.692;2023-04-16T02:04:18;5.63;;;5.10;;
6725;SDS011;3400;48.506;11.692;2023-04-16T02:06:46;5.83;;;5.23;;
6725;SDS011;3400;48.506;11.692;2023-04-16T02:09:14;6.30;;;5.70;;
6725;SDS011;3400;48.506;11.692;2023-04-16T02:11:42;5.93;;;5.43;;
6725;SDS011;3400;48.506;11.692;2023-04-16T02:14:12;5.57;;;5.17;;
6725;SDS011;3400;48.506;11.692;2023-04-16T02:16:40;5.00;;;4.60;;
6725;SDS011;3400;48.506;11.692;2023-04-16T02:19:18;6.40;;;5.73;;
6725;SDS011;3400;48.506;11.692;2023-04-16T02:21:46;5.67;;;5.17;;
6725;SDS011;3400;48.506;11.692;2023-04-16T02:24:14;5.33;;;4.93;;
6725;SDS011;3400;48.506;11.692;2023-04-16T02:26:42;5.70;;;5.00;;
6725;SDS011;3400;48.506;11.692;2023-04-16T02:29:15;6.00;;;5.47;;
6725;SDS011;3400;48.506;11.692;2023-04-16T02:31:49;5.57;;;5.07;;
6725;SDS011;3400;48.506;11.692;2023-04-16T02:34:18;5.83;;;5.23;;
6725;SDS011;3400;48.506;11.692;2023-04-16T02:36:47;5.20;;;4.70;;
6725;SDS011;3400;48.506;11.692;2023-04-16T02:39:15;5.70;;;5.27;;
6725;SDS011;3400;48.506;11.692;2023-04-16T02:41:43;6.03;;;5.00;;
6725;SDS011;3400;48.506;11.692;2023-04-16T02:44:11;4.70;;;4.30;;
6725;SDS011;3400;48.506;11.692;2023-04-16T02:46:40;6.17;;;5.53;;
6725;SDS011;3400;48.506;11.692;2023-04-16T02:49:08;5.23;;;4.83;;
6725;SDS011;3400;48.506;11.692;2023-04-16T02:51:36;6.00;;;5.50;;
6725;SDS011;3400;48.506;11.692;2023-04-16T02:54:03;5.57;;;5.17;;
6725;SDS011;3400;48.506;11.692;2023-04-16T02:56:32;5.80;;;5.30;;
6725;SDS011;3400;48.506;11.692;2023-04-16T02:58:59;5.80;;;5.40;;
6725;SDS011;3400;48.506;11.692;2023-04-16T03:01:28;6.83;;;6.23;;
6725;SDS011;3400;48.506;11.692;2023-04-16T03:03:57;5.70;;;5.30;;
6725;SDS011;3400;48.506;11.692;2023-04-16T03:06:25;6.60;;;6.00;;
6725;SDS011;3400;48.506;11.692;2023-04-16T03:08:53;5.83;;;5.43;;
6725;SDS011;3400;48.506;11.692;2023-04-16T03:11:21;6.27;;;5.77;;
6725;SDS011;3400;48.506;11.692;2023-04-16T03:13:49;7.50;;;6.90;;
6725;SDS011;3400;48.506;11.692;2023-04-16T03:16:17;6.43;;;5.93;;
6725;SDS011;3400;48.506;11.692;2023-04-16T03:18:45;6.93;;;6.27;;
6725;SDS011;3400;48.506;11.692;2023-04-16T03:21:14;6.97;;;6.37;;
6725;SDS011;3400;48.506;11.692;2023-04-16T03:23:42;7.30;;;6.70;;
6725;SDS011;3400;48.506;11.692;2023-04-16T03:26:10;7.80;;;7.00;;
6725;SDS011;3400;48.506;11.692;2023-04-16T03:28:38;7.97;;;7.17;;
6725;SDS011;3400;48.506;11.692;2023-04-16T03:31:06;8.23;;;7.40;;
6725;SDS011;3400;48.506;11.692;2023-04-16T03:33:35;8.80;;;8.03;;
6725;SDS011;3400;48.506;11.692;2023-04-16T03:36:04;8.50;;;7.70;;
6725;SDS011;3400;48.506;11.692;2023-04-16T03:38:33;9.53;;;8.17;;
6725;SDS011;3400;48.506;11.692;2023-04-16T03:41:01;8.87;;;8.07;;
6725;SDS011;3400;48.506;11.692;2023-04-16T03:43:31;8.40;;;7.60;;
6725;SDS011;3400;48.506;11.692;2023-04-16T03:45:59;10.30;;;8.07;;
6725;SDS011;3400;48.506;11.692;2023-04-16T03:48:27;9.17;;;8.37;;
6725;SDS011;3400;48.506;11.692;2023-04-16T03:50:56;9.77;;;8.83;;
6725;SDS011;3400;48.506;11.692;2023-04-16T03:53:24;9.13;;;8.23;;
6725;SDS011;3400;48.506;11.692;2023-04-16T03:55:54;9.70;;;8.80;;
6725;SDS011;3400;48.506;11.692;2023-04-16T03:58:23;8.60;;;7.80;;
6725;SDS011;3400;48.506;11.692;2023-04-16T04:00:51;8.23;;;7.43;;
6725;SDS011;3400;48.506;11.692;2023-04-16T04:03:20;9.33;;;8.47;;
6725;SDS011;3400;48.506;11.692;2023-04-16T04:05:49;10.37;;;9.37;;
6725;SDS011;3400;48.506;11.692;2023-04-16T04:08:24;8.93;;;8.03;;
6725;SDS011;3400;48.506;11.692;2023-04-16T04:10:53;9.93;;;9.03;;
6725;SDS011;3400;48.506;11.692;2023-04-16T04:13:23;9.50;;;8.60;;
6725;SDS011;3400;48.506;11.692;2023-04-16T04:15:52;9.87;;;8.90;;
6725;SDS011;3400;48.506;11.692;2023-04-16T04:18:21;9.87;;;8.93;;
6725;SDS011;3400;48.506;11.692;2023-04-16T04:20:49;10.10;;;9.20;;
6725;SDS011;3400;48.506;11.692;2023-04-16T04:23:19;8.60;;;7.80;;
6725;SDS011;3400;48.506;11.692;2023-04-16T04:25:47;10.63;;;9.53;;
6725;SDS011;3400;48.506;11.692;2023-04-16T04:28:15;9.60;;;8.70;;
6725;SDS011;3400;48.506;11.692;2023-04-16T04:30:44;10.10;;;9.20;;
6725;SDS011;3400;48.506;11.692;2023-04-16T04:33:12;9.90;;;8.97;;
6725;SDS011;3400;48.506;11.692;2023-04-16T04:35:41;10.07;;;9.17;;
6725;SDS011;3400;48.506;11.692;2023-04-16T04:38:09;10.90;;;9.27;;
6725;SDS011;3400;48.506;11.692;2023-04-16T04:40:37;9.60;;;8.70;;
6725;SDS011;3400;48.506;11.692;2023-04-16T04:43:05;10.30;;;9.30;;
6725;SDS011;3400;48.506;11.692;2023-04-16T04:45:32;10.77;;;9.67;;
6725;SDS011;3400;48.506;11.692;2023-04-16T04:48:02;10.53;;;9.43;;
6725;SDS011;3400;48.506;11.692;2023-04-16T04:50:30;9.53;;;8.57;;
6725;SDS011;3400;48.506;11.692;2023-04-16T04:52:58;9.90;;;8.90;;
6725;SDS011;3400;48.506;11.692;2023-04-16T04:55:26;10.13;;;9.23;;
6725;SDS011;3400;48.506;11.692;2023-04-16T04:57:53;11.07;;;9.23;;
6725;SDS011;3400;48.506;11.692;2023-04-16T05:00:21;10.73;;;9.17;;
6725;SDS011;3400;48.506;11.692;2023-04-16T05:02:53;9.90;;;8.90;;
6725;SDS011;3400;48.506;11.692;2023-04-16T05:05:22;10.07;;;9.07;;
6725;SDS011;3400;48.506;11.692;2023-04-16T05:07:50;11.20;;;9.93;;
6725;SDS011;3400;48.506;11.692;2023-04-16T05:10:18;11.87;;;8.67;;
6725;SDS011;3400;48.506;11.692;2023-04-16T05:12:46;10.50;;;9.50;;
6725;SDS011;3400;48.506;11.692;2023-04-16T05:15:14;10.83;;;9.83;;
6725;SDS011;3400;48.506;11.692;2023-04-16T05:17:41;10.27;;;9.27;;
6725;SDS011;3400;48.506;11.692;2023-04-16T05:20:09;9.80;;;8.90;;
6725;SDS011;3400;48.506;11.692;2023-04-16T05:22:39;9.70;;;8.80;;
6725;SDS011;3400;48.506;11.692;2023-04-16T05:25:09;9.57;;;8.57;;
6725;SDS011;3400;48.506;11.692;2023-04-16T05:27:37;10.13;;;9.13;;
6725;SDS011;3400;48.506;11.692;2023-04-16T05:30:05;9.53;;;8.63;;
6725;SDS011;3400;48.506;11.692;2023-04-16T05:32:33;9.60;;;8.70;;
6725;SDS011;3400;48.506;11.692;2023-04-16T05:35:01;10.27;;;9.27;;
6725;SDS011;3400;48.506;11.692;2023-04-16T05:37:29;10.87;;;9.77;;
6725;SDS011;3400;48.506;11.692;2023-04-16T05:39:58;9.90;;;8.90;;
6725;SDS011;3400;48.506;11.692;2023-04-16T05:42:26;11.10;;;9.17;;
6725;SDS011;3400;48.506;11.692;2023-04-16T05:44:54;9.10;;;8.27;;
6725;SDS011;3400;48.506;11.692;2023-04-16T05:47:22;9.37;;;8.43;;
6725;SDS011;3400;48.506;11.692;2023-04-16T05:49:50;9.83;;;8.93;;
6725;SDS011;3400;48.506;11.692;2023-04-16T05:52:18;9.73;;;8.83;;
6725;SDS011;3400;48.506;11.692;2023-04-16T05:54:46;9.10;;;8.27;;
6725;SDS011;3400;48.506;11.692;2023-04-16T05:57:15;10.03;;;9.13;;
6725;SDS011;3400;48.506;11.692;2023-04-16T05:59:43;8.70;;;7.90;;
6725;SDS011;3400;48.506;11.692;2023-04-16T06:02:11;9.17;;;8.37;;
6725;SDS011;3400;48.506;11.692;2023-04-16T06:04:39;8.67;;;7.87;;
6725;SDS011;3400;48.506;11.692;2023-04-16T06:07:07;8.93;;;8.13;;
6725;SDS011;3400;48.506;11.692;2023-04-16T06:09:35;7.73;;;7.03;;
6725;SDS011;3400;48.506;11.692;2023-04-16T06:12:04;8.40;;;7.70;;
6725;SDS011;3400;48.506;11.692;2023-04-16T06:14:33;7.13;;;6.53;;
6725;SDS011;3400;48.506;11.692;2023-04-16T06:17:01;7.43;;;6.73;;
6725;SDS011;3400;48.506;11.692;2023-04-16T06:19:29;7.00;;;6.40;;
6725;SDS011;3400;48.506;11.692;2023-04-16T06:21:57;6.27;;;5.80;;
6725;SDS011;3400;48.506;11.692;2023-04-16T06:24:25;6.23;;;5.73;;
6725;SDS011;3400;48.506;11.692;2023-04-16T06:26:52;6.17;;;5.67;;
6725;SDS011;3400;48.506;11.692;2023-04-16T06:29:20;5.73;;;5.33;;
6725;SDS011;3400;48.506;11.692;2023-04-16T06:31:50;5.73;;;5.33;;
6725;SDS011;3400;48.506;11.692;2023-04-16T06:34:18;5.80;;;5.30;;
6725;SDS011;3400;48.506;11.692;2023-04-16T06:36:45;5.60;;;5.10;;
6725;SDS011;3400;48.506;11.692;2023-04-16T06:39:13;5.10;;;4.70;;
6725;SDS011;3400;48.506;11.692;2023-04-16T06:41:41;5.70;;;5.20;;
6725;SDS011;3400;48.506;11.692;2023-04-16T06:44:09;4.90;;;4.50;;
6725;SDS011;3400;48.506;11.692;2023-04-16T06:46:37;4.80;;;4.50;;
6725;SDS011;3400;48.506;11.692;2023-04-16T06:49:06;4.50;;;4.13;;
6725;SDS011;3400;48.506;11.692;2023-04-16T06:51:34;4.37;;;4.07;;
6725;SDS011;3400;48.506;11.692;2023-04-16T06:54:02;4.70;;;4.30;;
6725;SDS011;3400;48.506;11.692;2023-04-16T06:56:30;5.33;;;4.87;;
6725;SDS011;3400;48.506;11.692;2023-04-16T06:58:58;5.40;;;4.90;;
6725;SDS011;3400;48.506;11.692;2023-04-16T07:01:26;4.67;;;4.37;;
6725;SDS011;3400;48.506;11.692;2023-04-16T07:03:55;4.23;;;3.87;;
6725;SDS011;3400;48.506;11.692;2023-04-16T07:06:25;4.53;;;4.23;;
6725;SDS011;3400;48.506;11.692;2023-04-16T07:08:53;4.80;;;4.50;;
6725;SDS011;3400;48.506;11.692;2023-04-16T07:11:21;4.47;;;4.07;;
6725;SDS011;3400;48.506;11.692;2023-04-16T07:13:50;4.53;;;4.20;;
6725;SDS011;3400;48.506;11.692;2023-04-16T07:16:18;4.10;;;3.80;;
6725;SDS011;3400;48.506;11.692;2023-04-16T07:18:46;4.17;;;3.87;;
6725;SDS011;3400;48.506;11.692;2023-04-16T07:21:14;4.60;;;4.20;;
6725;SDS011;3400;48.506;11.692;2023-04-16T07:23:43;4.53;;;4.23;;
6725;SDS011;3400;48.506;11.692;2023-04-16T07:26:11;4.93;;;4.57;;
6725;SDS011;3400;48.506;11.692;2023-04-16T07:28:39;5.10;;;4.70;;
6725;SDS011;3400;48.506;11.692;2023-04-16T07:31:07;4.50;;;4.20;;
6725;SDS011;3400;48.506;11.692;2023-04-16T07:33:35;4.67;;;4.33;;
6725;SDS011;3400;48.506;11.692;2023-04-16T07:36:03;4.40;;;4.10;;
6725;SDS011;3400;48.506;11.692;2023-04-16T07:38:30;4.90;;;4.50;;
6725;SDS011;3400;48.506;11.692;2023-04-16T07:41:00;4.77;;;4.37;;
6725;SDS011;3400;48.506;11.692;2023-04-16T07:43:28;4.43;;;4.13;;
6725;SDS011;3400;48.506;11.692;2023-04-16T07:45:56;4.60;;;4.23;;
6725;SDS011;3400;48.506;11.692;2023-04-16T07:48:24;4.00;;;3.70;;
6725;SDS011;3400;48.506;11.692;2023-04-16T07:50:52;3.50;;;3.30;;
6725;SDS011;3400;48.506;11.692;2023-04-16T07:53:20;3.43;;;3.13;;
6725;SDS011;3400;48.506;11.692;2023-04-16T07:55:48;3.40;;;3.20;;
6725;SDS011;3400;48.506;11.692;2023-04-16T07:58:17;3.17;;;2.97;;
6725;SDS011;3400;48.506;11.692;2023-04-16T08:00:45;2.80;;;2.67;;
6725;SDS011;3400;48.506;11.692;2023-04-16T08:03:13;2.80;;;2.60;;
6725;SDS011;3400;48.506;11.692;2023-04-16T08:05:41;2.70;;;2.50;;
6725;SDS011;3400;48.506;11.692;2023-04-16T08:08:09;2.87;;;2.63;;
6725;SDS011;3400;48.506;11.692;2023-04-16T08:10:38;2.53;;;2.43;;
6725;SDS011;3400;48.506;11.692;2023-04-16T08:13:06;3.17;;;2.97;;
6725;SDS011;3400;48.506;11.692;2023-04-16T08:15:38;2.67;;;2.47;;
6725;SDS011;3400;48.506;11.692;2023-04-16T08:18:07;2.77;;;2.60;;
6725;SDS011;3400;48.506;11.692;2023-04-16T08:20:37;3.17;;;2.73;;
6725;SDS011;3400;48.506;11.692;2023-04-16T08:23:05;2.63;;;2.53;;
6725;SDS011;3400;48.506;11.692;2023-04-16T08:25:33;2.13;;;2.03;;
6725;SDS011;3400;48.506;11.692;2023-04-16T08:28:01;2.70;;;2.57;;
6725;SDS011;3400;48.506;11.692;2023-04-16T08:30:29;2.33;;;2.17;;
6725;SDS011;3400;48.506;11.692;2023-04-16T08:32:59;2.07;;;1.90;;
6725;SDS011;3400;48.506;11.692;2023-04-16T08:35:27;1.90;;;1.80;;
6725;SDS011;3400;48.506;11.692;2023-04-16T08:37:55;2.30;;;1.40;;
6725;SDS011;3400;48.506;11.692;2023-04-16T08:40:27;2.03;;;1.93;;
6725;SDS011;3400;48.506;11.692;2023-04-16T08:43:00;1.67;;;1.60;;
6725;SDS011;3400;48.506;11.692;2023-04-16T08:45:29;1.70;;;1.60;;
6725;SDS011;3400;48.506;11.692;2023-04-16T08:48:00;1.30;;;1.20;;
6725;SDS011;3400;48.506;11.692;2023-04-16T08:50:28;1.30;;;1.20;;
6725;SDS011;3400;48.506;11.692;2023-04-16T08:52:57;1.00;;;1.00;;
6725;SDS011;3400;48.506;11.692;2023-04-16T08:55:28;0.60;;;0.60;;
6725;SDS011;3400;48.506;11.692;2023-04-16T08:57:59;0.80;;;0.80;;
6725;SDS011;3400;48.506;11.692;2023-04-16T09:00:27;1.10;;;1.10;;
6725;SDS011;3400;48.506;11.692;2023-04-16T09:02:55;0.80;;;0.80;;
6725;SDS011;3400;48.506;11.692;2023-04-16T09:05:24;0.70;;;0.70;;
6725;SDS011;3400;48.506;11.692;2023-04-16T09:07:54;0.70;;;0.70;;
6725;SDS011;3400;48.506;11.692;2023-04-16T09:10:22;0.90;;;0.90;;
6725;SDS011;3400;48.506;11.692;2023-04-16T09:12:52;0.70;;;0.70;;
6725;SDS011;3400;48.506;11.692;2023-04-16T09:15:22;1.00;;;1.00;;
6725;SDS011;3400;48.506;11.692;2023-04-16T09:17:50;1.00;;;0.73;;
6725;SDS011;3400;48.506;11.692;2023-04-16T09:20:18;0.50;;;0.50;;
6725;SDS011;3400;48.506;11.692;2023-04-16T09:22:48;0.70;;;0.70;;
6725;SDS011;3400;48.506;11.692;2023-04-16T09:25:16;0.80;;;0.80;;
6725;SDS011;3400;48.506;11.692;2023-04-16T09:27:44;1.47;;;0.87;;
6725;SDS011;3400;48.506;11.692;2023-04-16T09:30:18;1.00;;;1.00;;
6725;SDS011;3400;48.506;11.692;2023-04-16T09:32:50;0.90;;;0.90;;
6725;SDS011;3400;48.506;11.692;2023-04-16T09:35:18;1.27;;;1.20;;
6725;SDS011;3400;48.506;11.692;2023-04-16T09:37:56;1.03;;;1.03;;
6725;SDS011;3400;48.506;11.692;2023-04-16T09:40:24;1.00;;;1.00;;
6725;SDS011;3400;48.506;11.692;2023-04-16T09:42:55;1.17;;;1.00;;
6725;SDS011;3400;48.506;11.692;2023-04-16T09:45:25;0.90;;;0.90;;
6725;SDS011;3400;48.506;11.692;2023-04-16T09:48:01;1.20;;;1.20;;
6725;SDS011;3400;48.506;11.692;2023-04-16T09:50:29;1.07;;;1.07;;
6725;SDS011;3400;48.506;11.692;2023-04-16T09:53:00;1.20;;;1.20;;
6725;SDS011;3400;48.506;11.692;2023-04-16T09:55:28;1.47;;;1.27;;
6725;SDS011;3400;48.506;11.692;2023-04-16T09:57:59;1.07;;;1.07;;
6725;SDS011;3400;48.506;11.692;2023-04-16T10:00:27;1.03;;;1.03;;
6725;SDS011;3400;48.506;11.692;2023-04-16T10:03:02;0.97;;;0.97;;
6725;SDS011;3400;48.506;11.692;2023-04-16T10:05:30;0.90;;;0.90;;
6725;SDS011;3400;48.506;11.692;2023-04-16T10:08:00;0.90;;;0.90;;
6725;SDS011;3400;48.506;11.692;2023-04-16T10:10:28;1.23;;;0.90;;
6725;SDS011;3400;48.506;11.692;2023-04-16T10:12:56;1.43;;;1.33;;
6725;SDS011;3400;48.506;11.692;2023-04-16T10:15:23;0.97;;;0.97;;
6725;SDS011;3400;48.506;11.692;2023-04-16T10:17:51;1.10;;;1.10;;
6725;SDS011;3400;48.506;11.692;2023-04-16T10:20:20;1.00;;;1.00;;
6725;SDS011;3400;48.506;11.692;2023-04-16T10:22:49;0.77;;;0.77;;
6725;SDS011;3400;48.506;11.692;2023-04-16T10:25:18;0.93;;;0.93;;
6725;SDS011;3400;48.506;11.692;2023-04-16T10:27:46;0.77;;;0.77;;
6725;SDS011;3400;48.506;11.692;2023-04-16T10:30:14;1.13;;;1.00;;
6725;SDS011;3400;48.506;11.692;2023-04-16T10:32:44;0.90;;;0.90;;
6725;SDS011;3400;48.506;11.692;2023-04-16T10:35:13;0.80;;;0.80;;
6725;SDS011;3400;48.506;11.692;2023-04-16T10:37:42;0.70;;;0.70;;
6725;SDS011;3400;48.506;11.692;2023-04-16T10:40:24;0.70;;;0.70;;
6725;SDS011;3400;48.506;11.692;2023-04-16T10:42:53;0.70;;;0.70;;
6725;SDS011;3400;48.506;11.692;2023-04-16T10:45:25;0.70;;;0.70;;
6725;SDS011;3400;48.506;11.692;2023-04-16T10:47:54;0.70;;;0.70;;
6725;SDS011;3400;48.506;11.692;2023-04-16T10:50:23;0.70;;;0.70;;
6725;SDS011;3400;48.506;11.692;2023-04-16T10:55:38;0.70;;;0.70;;
6725;SDS011;3400;48.506;11.692;2023-04-16T11:00:49;0.60;;;0.60;;
6725;SDS011;3400;48.506;11.692;2023-04-16T11:03:17;0.47;;;0.47;;
6725;SDS011;3400;48.506;11.692;2023-04-16T11:05:45;0.70;;;0.50;;
6725;SDS011;3400;48.506;11.692;2023-04-16T11:08:13;0.73;;;0.53;;
6725;SDS011;3400;48.506;11.692;2023-04-16T11:10:43;0.60;;;0.60;;
6725;SDS011;3400;48.506;11.692;2023-04-16T11:13:11;0.40;;;0.40;;
6725;SDS011;3400;48.506;11.692;2023-04-16T11:15:39;0.60;;;0.60;;
6725;SDS011;3400;48.506;11.692;2023-04-16T11:18:07;1.17;;;0.50;;
6725;SDS011;3400;48.506;11.692;2023-04-16T11:20:40;0.40;;;0.40;;
6725;SDS011;3400;48.506;11.692;2023-04-16T11:23:09;0.60;;;0.60;;
6725;SDS011;3400;48.506;11.692;2023-04-16T11:25:39;0.47;;;0.47;;
6725;SDS011;3400;48.506;11.692;2023-04-16T11:28:08;0.40;;;0.40;;
6725;SDS011;3400;48.506;11.692;2023-04-16T11:30:37;0.50;;;0.50;;
6725;SDS011;3400;48.506;11.692;2023-04-16T11:33:06;0.57;;;0.57;;
6725;SDS011;3400;48.506;11.692;2023-04-16T11:35:36;0.57;;;0.57;;
6725;SDS011;3400;48.506;11.692;2023-04-16T11:38:04;0.40;;;0.40;;
6725;SDS011;3400;48.506;11.692;2023-04-16T11:40:32;0.50;;;0.50;;
6725;SDS011;3400;48.506;11.692;2023-04-16T11:43:01;0.50;;;0.50;;
6725;SDS011;3400;48.506;11.692;2023-04-16T11:45:30;0.53;;;0.53;;
6725;SDS011;3400;48.506;11.692;2023-04-16T11:47:58;0.30;;;0.30;;
6725;SDS011;3400;48.506;11.692;2023-04-16T11:50:26;0.57;;;0.57;;
6725;SDS011;3400;48.506;11.692;2023-04-16T11:52:55;0.67;;;0.60;;
6725;SDS011;3400;48.506;11.692;2023-04-16T11:55:23;0.83;;;0.50;;
6725;SDS011;3400;48.506;11.692;2023-04-16T11:57:51;0.50;;;0.50;;
6725;SDS011;3400;48.506;11.692;2023-04-16T12:00:19;0.40;;;0.40;;
6725;SDS011;3400;48.506;11.692;2023-04-16T12:02:50;0.50;;;0.50;;
6725;SDS011;3400;48.506;11.692;2023-04-16T12:05:28;0.40;;;0.40;;
6725;SDS011;3400;48.506;11.692;2023-04-16T12:07:56;0.43;;;0.43;;
6725;SDS011;3400;48.506;11.692;2023-04-16T12:10:25;0.60;;;0.60;;
6725;SDS011;3400;48.506;11.692;2023-04-16T12:12:54;0.40;;;0.40;;
6725;SDS011;3400;48.506;11.692;2023-04-16T12:15:42;1.10;;;0.60;;
6725;SDS011;3400;48.506;11.692;2023-04-16T12:18:12;0.50;;;0.50;;
6725;SDS011;3400;48.506;11.692;2023-04-16T12:20:40;0.40;;;0.40;;
6725;SDS011;3400;48.506;11.692;2023-04-16T12:23:09;0.43;;;0.43;;
6725;SDS011;3400;48.506;11.692;2023-04-16T12:25:41;1.80;;;0.50;;
6725;SDS011;3400;48.506;11.692;2023-04-16T12:28:11;0.47;;;0.47;;
6725;SDS011;3400;48.506;11.692;2023-04-16T12:30:48;0.60;;;0.60;;
6725;SDS011;3400;48.506;11.692;2023-04-16T12:33:18;0.50;;;0.50;;
6725;SDS011;3400;48.506;11.692;2023-04-16T12:35:55;3.33;;;0.60;;
6725;SDS011;3400;48.506;11.692;2023-04-16T12:38:26;1.70;;;0.50;;
6725;SDS011;3400;48.506;11.692;2023-04-16T12:40:54;0.40;;;0.40;;
6725;SDS011;3400;48.506;11.692;2023-04-16T12:43:32;0.50;;;0.50;;
6725;SDS011;3400;48.506;11.692;2023-04-16T12:46:09;0.40;;;0.40;;
6725;SDS011;3400;48.506;11.692;2023-04-16T12:48:59;0.40;;;0.40;;
6725;SDS011;3400;48.506;11.692;2023-04-16T12:51:35;1.90;;;0.70;;
6725;SDS011;3400;48.506;11.692;2023-04-16T12:54:23;0.53;;;0.53;;
6725;SDS011;3400;48.506;11.692;2023-04-16T12:57:01;0.33;;;0.33;;
6725;SDS011;3400;48.506;11.692;2023-04-16T12:59:33;0.40;;;0.40;;
6725;SDS011;3400;48.506;11.692;2023-04-16T13:02:01;0.50;;;0.40;;
6725;SDS011;3400;48.506;11.692;2023-04-16T13:04:33;0.40;;;0.40;;
6725;SDS011;3400;48.506;11.692;2023-04-16T13:07:01;0.40;;;0.40;;
6725;SDS011;3400;48.506;11.692;2023-04-16T13:09:29;0.40;;;0.40;;
6725;SDS011;3400;48.506;11.692;2023-04-16T13:11:57;0.50;;;0.50;;
6725;SDS011;3400;48.506;11.692;2023-04-16T13:14:25;0.63;;;0.50;;
6725;SDS011;3400;48.506;11.692;2023-04-16T13:16:53;0.47;;;0.47;;
6725;SDS011;3400;48.506;11.692;2023-04-16T13:19:21;2.20;;;1.23;;
6725;SDS011;3400;48.506;11.692;2023-04-16T13:21:50;0.70;;;0.70;;
6725;SDS011;3400;48.506;11.692;2023-04-16T13:24:18;1.50;;;0.50;;
6725;SDS011;3400;48.506;11.692;2023-04-16T13:26:46;0.63;;;0.60;;
6725;SDS011;3400;48.506;11.692;2023-04-16T13:29:14;0.70;;;0.70;;
6725;SDS011;3400;48.506;11.692;2023-04-16T13:31:42;0.60;;;0.60;;
6725;SDS011;3400;48.506;11.692;2023-04-16T13:34:10;0.43;;;0.43;;
6725;SDS011;3400;48.506;11.692;2023-04-16T13:36:49;0.57;;;0.57;;
6725;SDS011;3400;48.506;11.692;2023-04-16T13:39:19;1.80;;;0.60;;
6725;SDS011;3400;48.506;11.692;2023-04-16T13:41:47;0.50;;;0.50;;
6725;SDS011;3400;48.506;11.692;2023-04-16T13:44:16;0.67;;;0.63;;
6725;SDS011;3400;48.506;11.692;2023-04-16T13:46:46;0.70;;;0.70;;
6725;SDS011;3400;48.506;11.692;2023-04-16T13:49:18;0.53;;;0.53;;
6725;SDS011;3400;48.506;11.692;2023-04-16T13:51:48;0.57;;;0.57;;
6725;SDS011;3400;48.506;11.692;2023-04-16T13:54:17;0.37;;;0.37;;
6725;SDS011;3400;48.506;11.692;2023-04-16T13:56:49;0.40;;;0.40;;
6725;SDS011;3400;48.506;11.692;2023-04-16T13:59:19;0.63;;;0.63;;
6725;SDS011;3400;48.506;11.692;2023-04-16T14:01:50;0.43;;;0.43;;
6725;SDS011;3400;48.506;11.692;2023-04-16T14:04:19;0.63;;;0.63;;
6725;SDS011;3400;48.506;11.692;2023-04-16T14:06:51;0.50;;;0.50;;
6725;SDS011;3400;48.506;11.692;2023-04-16T14:09:19;1.60;;;0.63;;
6725;SDS011;3400;48.506;11.692;2023-04-16T14:11:50;0.50;;;0.50;;
6725;SDS011;3400;48.506;11.692;2023-04-16T14:14:32;0.83;;;0.83;;
6725;SDS011;3400;48.506;11.692;2023-04-16T14:17:00;0.50;;;0.50;;
6725;SDS011;3400;48.506;11.692;2023-04-16T14:19:31;0.60;;;0.60;;
6725;SDS011;3400;48.506;11.692;2023-04-16T14:21:59;0.40;;;0.40;;
6725;SDS011;3400;48.506;11.692;2023-04-16T14:24:27;0.63;;;0.63;;
6725;SDS011;3400;48.506;11.692;2023-04-16T14:27:07;0.63;;;0.63;;
6725;SDS011;3400;48.506;11.692;2023-04-16T14:30:13;0.60;;;0.60;;
6725;SDS011;3400;48.506;11.692;2023-04-16T14:32:42;0.80;;;0.80;;
6725;SDS011;3400;48.506;11.692;2023-04-16T14:35:10;0.60;;;0.60;;
6725;SDS011;3400;48.506;11.692;2023-04-16T14:37:38;0.90;;;0.90;;
6725;SDS011;3400;48.506;11.692;2023-04-16T14:40:07;0.50;;;0.50;;
6725;SDS011;3400;48.506;11.692;2023-04-16T14:42:39;0.60;;;0.60;;
6725;SDS011;3400;48.506;11.692;2023-04-16T14:45:08;0.70;;;0.70;;
6725;SDS011;3400;48.506;11.692;2023-04-16T14:47:37;0.60;;;0.50;;
6725;SDS011;3400;48.506;11.692;2023-04-16T14:50:11;0.50;;;0.50;;
6725;SDS011;3400;48.506;11.692;2023-04-16T14:52:38;1.33;;;0.70;;
6725;SDS011;3400;48.506;11.692;2023-04-16T14:55:07;1.00;;;0.70;;
6725;SDS011;3400;48.506;11.692;2023-04-16T14:57:35;0.53;;;0.53;;
6725;SDS011;3400;48.506;11.692;2023-04-16T15:00:04;0.60;;;0.60;;
6725;SDS011;3400;48.506;11.692;2023-04-16T15:02:34;3.67;;;0.60;;
6725;SDS011;3400;48.506;11.692;2023-04-16T15:05:04;0.80;;;0.80;;
6725;SDS011;3400;48.506;11.692;2023-04-16T15:07:34;0.90;;;0.90;;
6725;SDS011;3400;48.506;11.692;2023-04-16T15:10:02;0.70;;;0.70;;
6725;SDS011;3400;48.506;11.692;2023-04-16T15:12:30;0.80;;;0.80;;
6725;SDS011;3400;48.506;11.692;2023-04-16T15:14:58;0.70;;;0.70;;
6725;SDS011;3400;48.506;11.692;2023-04-16T15:17:26;0.93;;;0.80;;